Hlavní strana
METAR-TAF:

METAR-TAF

Letiště :

Asheboro Regional Airport

Asheboro, Severní Karolína, Spojené státy americké

zeměpisná šířka: 35-39-14N, zeměpisná délka: 079-53-42W, výška: 205 m

Aktuální stav počasí

Zpráva byla vytvořena před 13 minutami, v 17:35 UTC
Severozápadní vítr 10 kt s nárazy do 21 kt, proměnlivý mezi západoseverozápadním a severním
Teplota 6°C
Vlhkost vzduchu 31%
Tlak 1017 hPa
Viditelnost: 16.1 km
Jasno

METAR: KHBI 271735Z AUTO 31010G21KT 290V350 10SM CLR 06/M10 A3004 RMK AO2 T00591097

Čas: 12:48 (17:48 UTC)


TAF: chybějící

Stav a předpovědi počasí z více než 4 000 letišť (zprávy METAR a TAF).

Červené a žluté tečky na mapě představují dostupné meteorologické stanice.

Když kurzor umístíte na tečku, zobrazí se název stanice.

Pak kliknutím zobrazíte stav a předpověď počasí.

Chcete-li změnit mapu, kliknutím na zelené tlačítko se znaménkem +mapu přiblížíte, kliknutím na zelené tlačítko se znaménkem – mapu oddálíte a kliknutím na zelené šipky přejdete na sousední mapy.


METAR-TAF: